DAL1723 KSAN-KPHX
Flight info
| Callsign | DAL1723 |
|---|---|
| Flight time | 0h 55m |
| Altitude | 33000 |
| Route | ZZOOO4 HOGGZ HYDRR1 |
| Aircraft | A321/M-SDE3FGHIRWY/LB1 |
Departure
| Time | 2026-04-25 20:42 |
|---|---|
| Airport | San Diego International Airport (KSAN) |
Arrival
| Time | 2026-04-25 21:37 |
|---|---|
| Airport | Phoenix Sky Harbor International Airport (KPHX) |
| Time | Latitude | Longitude | Altitude | Speed | Heading |
|---|---|---|---|---|---|
| 2026-04-25 19:47 | 32.73337 | -117.20342 | 24 ft | 0 kts | 266° |
| 2026-04-25 20:11 | 32.73338 | -117.20342 | 24 ft | 0 kts | 266° |
| 2026-04-25 20:11 | 32.73338 | -117.20326 | 23 ft | 3 kts | 266° |
| 2026-04-25 20:11 | 32.73340 | -117.20305 | 23 ft | 2 kts | 264° |
| 2026-04-25 20:12 | 32.73344 | -117.20287 | 23 ft | 3 kts | 216° |
| 2026-04-25 20:12 | 32.73361 | -117.20279 | 25 ft | 3 kts | 185° |
| 2026-04-25 20:12 | 32.73381 | -117.20277 | 23 ft | 3 kts | 183° |
| 2026-04-25 20:12 | 32.73394 | -117.20276 | 23 ft | 3 kts | 191° |
| 2026-04-25 20:13 | 32.73416 | -117.20269 | 25 ft | 3 kts | 209° |
| 2026-04-25 20:13 | 32.73431 | -117.20255 | 26 ft | 3 kts | 237° |
| 2026-04-25 20:13 | 32.73440 | -117.20238 | 24 ft | 2 kts | 205° |
| 2026-04-25 20:13 | 32.73449 | -117.20234 | 25 ft | 2 kts | 191° |
| 2026-04-25 20:14 | 32.73466 | -117.20233 | 24 ft | 3 kts | 142° |
| 2026-04-25 20:14 | 32.73472 | -117.20242 | 24 ft | 3 kts | 68° |
| 2026-04-25 20:14 | 32.73466 | -117.20253 | 25 ft | 1 kts | 16° |
| 2026-04-25 20:14 | 32.73453 | -117.20257 | 27 ft | 3 kts | 16° |
| 2026-04-25 20:15 | 32.73433 | -117.20264 | 25 ft | 3 kts | 16° |
| 2026-04-25 20:15 | 32.73424 | -117.20267 | 22 ft | 0 kts | 16° |
| 2026-04-25 20:21 | 32.73420 | -117.20249 | 24 ft | 4 kts | 140° |
| 2026-04-25 20:21 | 32.73416 | -117.20249 | 24 ft | 0 kts | 162° |
| 2026-04-25 20:22 | 32.73415 | -117.20248 | 23 ft | 1 kts | 163° |
| 2026-04-25 20:22 | 32.73397 | -117.20251 | 22 ft | 7 kts | 185° |
| 2026-04-25 20:22 | 32.73312 | -117.20263 | 23 ft | 0 kts | 187° |
| 2026-04-25 20:26 | 32.73311 | -117.20261 | 23 ft | 0 kts | 169° |
| 2026-04-25 20:26 | 32.73309 | -117.20251 | 24 ft | 2 kts | 90° |
| 2026-04-25 20:27 | 32.73319 | -117.20241 | 26 ft | 1 kts | 10° |
| 2026-04-25 20:27 | 32.73334 | -117.20250 | 23 ft | 6 kts | 340° |
| 2026-04-25 20:27 | 32.73373 | -117.20266 | 22 ft | 6 kts | 341° |
| 2026-04-25 20:27 | 32.73411 | -117.20265 | 22 ft | 5 kts | 11° |
| 2026-04-25 20:28 | 32.73442 | -117.20258 | 23 ft | 4 kts | 9° |
| 2026-04-25 20:28 | 32.73458 | -117.20254 | 24 ft | 1 kts | 13° |
| 2026-04-25 20:28 | 32.73481 | -117.20247 | 24 ft | 10 kts | 15° |
| 2026-04-25 20:28 | 32.73529 | -117.20221 | 26 ft | 0 kts | 37° |
| 2026-04-25 20:29 | 32.73537 | -117.20204 | 27 ft | 10 kts | 69° |
| 2026-04-25 20:29 | 32.73520 | -117.20066 | 25 ft | 16 kts | 104° |
| 2026-04-25 20:29 | 32.73490 | -117.19948 | 28 ft | 14 kts | 106° |
| 2026-04-25 20:29 | 32.73466 | -117.19848 | 27 ft | 12 kts | 105° |
| 2026-04-25 20:30 | 32.73445 | -117.19760 | 27 ft | 11 kts | 106° |
| 2026-04-25 20:30 | 32.73424 | -117.19674 | 29 ft | 12 kts | 106° |
| 2026-04-25 20:30 | 32.73397 | -117.19566 | 27 ft | 15 kts | 107° |
| 2026-04-25 20:30 | 32.73361 | -117.19421 | 26 ft | 23 kts | 106° |
| 2026-04-25 20:31 | 32.73315 | -117.19230 | 26 ft | 24 kts | 105° |
| 2026-04-25 20:31 | 32.73274 | -117.19050 | 29 ft | 21 kts | 105° |
| 2026-04-25 20:31 | 32.73234 | -117.18886 | 27 ft | 20 kts | 107° |
| 2026-04-25 20:31 | 32.73198 | -117.18739 | 25 ft | 17 kts | 106° |
| 2026-04-25 20:32 | 32.73165 | -117.18605 | 28 ft | 17 kts | 106° |
| 2026-04-25 20:32 | 32.73132 | -117.18467 | 26 ft | 17 kts | 106° |
| 2026-04-25 20:32 | 32.73100 | -117.18339 | 26 ft | 16 kts | 106° |
| 2026-04-25 20:32 | 32.73071 | -117.18217 | 26 ft | 15 kts | 106° |
| 2026-04-25 20:33 | 32.73062 | -117.18132 | 23 ft | 0 kts | 23° |
| 2026-04-25 20:36 | 32.73063 | -117.18127 | 25 ft | 1 kts | 61° |
| 2026-04-25 20:36 | 32.73047 | -117.18103 | 23 ft | 9 kts | 125° |
| 2026-04-25 20:37 | 32.73017 | -117.17993 | 23 ft | 19 kts | 106° |
| 2026-04-25 20:37 | 32.72975 | -117.17826 | 21 ft | 10 kts | 108° |
| 2026-04-25 20:37 | 32.72955 | -117.17759 | 21 ft | 8 kts | 107° |
| 2026-04-25 20:37 | 32.72953 | -117.17748 | 21 ft | 0 kts | 104° |
| 2026-04-25 20:39 | 32.72952 | -117.17741 | 21 ft | 2 kts | 100° |
| 2026-04-25 20:39 | 32.72951 | -117.17722 | 22 ft | 3 kts | 91° |
| 2026-04-25 20:39 | 32.72951 | -117.17713 | 22 ft | 3 kts | 86° |
| 2026-04-25 20:40 | 32.73013 | -117.17621 | 25 ft | 11 kts | 334° |
| 2026-04-25 20:40 | 32.73046 | -117.17692 | 24 ft | 0 kts | 286° |
| 2026-04-25 20:40 | 32.73046 | -117.17693 | 24 ft | 0 kts | 286° |
| 2026-04-25 20:41 | 32.73064 | -117.17763 | 25 ft | 37 kts | 286° |
| 2026-04-25 20:41 | 32.73203 | -117.18334 | 26 ft | 102 kts | 285° |
| 2026-04-25 20:41 | 32.73448 | -117.19346 | 27 ft | 150 kts | 285° |
| 2026-04-25 20:41 | 32.73761 | -117.20600 | 361 ft | 162 kts | 286° |
| 2026-04-25 20:42 | 32.74089 | -117.21889 | 999 ft | 163 kts | 284° |
| 2026-04-25 20:42 | 32.74414 | -117.23198 | 1614 ft | 166 kts | 284° |
| 2026-04-25 20:42 | 32.74728 | -117.24498 | 2226 ft | 165 kts | 284° |
| 2026-04-25 20:42 | 32.75026 | -117.25830 | 2830 ft | 168 kts | 284° |
| 2026-04-25 20:43 | 32.75335 | -117.27218 | 3194 ft | 180 kts | 282° |
| 2026-04-25 20:43 | 32.75645 | -117.28708 | 3587 ft | 190 kts | 283° |
| 2026-04-25 20:43 | 32.75976 | -117.30259 | 3998 ft | 197 kts | 283° |
| 2026-04-25 20:43 | 32.76303 | -117.31872 | 4429 ft | 204 kts | 282° |
| 2026-04-25 20:44 | 32.76607 | -117.33563 | 4838 ft | 217 kts | 279° |
| 2026-04-25 20:44 | 32.76733 | -117.35369 | 5361 ft | 226 kts | 263° |
| 2026-04-25 20:44 | 32.76239 | -117.37154 | 6025 ft | 231 kts | 238° |
| 2026-04-25 20:44 | 32.75141 | -117.38560 | 6679 ft | 238 kts | 215° |
| 2026-04-25 20:45 | 32.73591 | -117.39388 | 7165 ft | 252 kts | 195° |
| 2026-04-25 20:45 | 32.71819 | -117.39614 | 7844 ft | 260 kts | 180° |
| 2026-04-25 20:45 | 32.70035 | -117.39215 | 8560 ft | 269 kts | 163° |
| 2026-04-25 20:45 | 32.68407 | -117.38081 | 9360 ft | 277 kts | 143° |
| 2026-04-25 20:46 | 32.67191 | -117.36277 | 10145 ft | 285 kts | 126° |
| 2026-04-25 20:46 | 32.66229 | -117.34215 | 10887 ft | 286 kts | 123° |
| 2026-04-25 20:46 | 32.65403 | -117.32041 | 11534 ft | 295 kts | 116° |
| 2026-04-25 20:46 | 32.64808 | -117.29660 | 12015 ft | 308 kts | 111° |
| 2026-04-25 20:47 | 32.64229 | -117.27142 | 12418 ft | 322 kts | 111° |
| 2026-04-25 20:47 | 32.63621 | -117.24528 | 12899 ft | 331 kts | 112° |
| 2026-04-25 20:47 | 32.63003 | -117.21905 | 13683 ft | 330 kts | 112° |
| 2026-04-25 20:47 | 32.62419 | -117.19309 | 14376 ft | 330 kts | 111° |
| 2026-04-25 20:48 | 32.61860 | -117.16665 | 15076 ft | 330 kts | 110° |
| 2026-04-25 20:48 | 32.61320 | -117.13999 | 15575 ft | 338 kts | 110° |
| 2026-04-25 20:48 | 32.60749 | -117.11239 | 15930 ft | 349 kts | 110° |
| 2026-04-25 20:48 | 32.60324 | -117.08356 | 16449 ft | 361 kts | 97° |
| 2026-04-25 20:49 | 32.60474 | -117.05351 | 17061 ft | 370 kts | 84° |
| 2026-04-25 20:49 | 32.60801 | -117.03364 | 17469 ft | 372 kts | 79° |
| 2026-04-25 20:49 | 32.61816 | -116.99453 | 18336 ft | 376 kts | 69° |
| 2026-04-25 20:49 | 32.62924 | -116.96628 | 18912 ft | 377 kts | 64° |
| 2026-04-25 20:50 | 32.63728 | -116.94785 | 19300 ft | 378 kts | 64° |
| 2026-04-25 20:50 | 32.64867 | -116.91963 | 19833 ft | 380 kts | 68° |
| 2026-04-25 20:50 | 32.66191 | -116.88087 | 20502 ft | 384 kts | 72° |
| 2026-04-25 20:50 | 32.66809 | -116.86064 | 20836 ft | 385 kts | 72° |
| 2026-04-25 20:51 | 32.67701 | -116.83096 | 21371 ft | 387 kts | 72° |
| 2026-04-25 20:51 | 32.68594 | -116.80063 | 21944 ft | 388 kts | 72° |
| 2026-04-25 20:51 | 32.69487 | -116.77043 | 22539 ft | 388 kts | 72° |
| 2026-04-25 20:51 | 32.70384 | -116.74018 | 23128 ft | 387 kts | 72° |
| 2026-04-25 20:52 | 32.71282 | -116.71007 | 23711 ft | 386 kts | 72° |
| 2026-04-25 20:52 | 32.71872 | -116.68996 | 23899 ft | 391 kts | 75° |
| 2026-04-25 20:52 | 32.72725 | -116.64784 | 24232 ft | 399 kts | 82° |
| 2026-04-25 20:52 | 32.73186 | -116.61516 | 24550 ft | 403 kts | 86° |
| 2026-04-25 20:53 | 32.73362 | -116.58188 | 24908 ft | 404 kts | 94° |
| 2026-04-25 20:53 | 32.73369 | -116.54835 | 25263 ft | 407 kts | 94° |
| 2026-04-25 20:53 | 32.73352 | -116.51501 | 25669 ft | 409 kts | 96° |
| 2026-04-25 20:53 | 32.73182 | -116.48138 | 26080 ft | 408 kts | 100° |
| 2026-04-25 20:54 | 32.72894 | -116.44778 | 26519 ft | 408 kts | 101° |
| 2026-04-25 20:54 | 32.72597 | -116.41418 | 26964 ft | 409 kts | 100° |
| 2026-04-25 20:54 | 32.72363 | -116.38039 | 27438 ft | 409 kts | 98° |
| 2026-04-25 20:54 | 32.72175 | -116.34709 | 27857 ft | 410 kts | 98° |
| 2026-04-25 20:55 | 32.71987 | -116.31305 | 28264 ft | 411 kts | 98° |
| 2026-04-25 20:55 | 32.71802 | -116.27912 | 28685 ft | 411 kts | 98° |
| 2026-04-25 20:55 | 32.71623 | -116.24556 | 29128 ft | 411 kts | 99° |
| 2026-04-25 20:55 | 32.71446 | -116.21171 | 29569 ft | 410 kts | 98° |
| 2026-04-25 20:56 | 32.71271 | -116.17780 | 30015 ft | 410 kts | 99° |
| 2026-04-25 20:56 | 32.71093 | -116.14391 | 30316 ft | 411 kts | 99° |
| 2026-04-25 20:56 | 32.70910 | -116.11004 | 30606 ft | 410 kts | 99° |
| 2026-04-25 20:56 | 32.70726 | -116.07675 | 30921 ft | 409 kts | 100° |
| 2026-04-25 20:57 | 32.70535 | -116.04310 | 31242 ft | 407 kts | 101° |
| 2026-04-25 20:57 | 32.70343 | -116.00962 | 31573 ft | 405 kts | 101° |
| 2026-04-25 20:57 | 32.69998 | -115.94131 | 31625 ft | 419 kts | 102° |
| 2026-04-25 20:58 | 32.69776 | -115.90684 | 31747 ft | 424 kts | 101° |
| 2026-04-25 20:58 | 32.69582 | -115.87159 | 31909 ft | 428 kts | 100° |
| 2026-04-25 20:58 | 32.69420 | -115.83609 | 32069 ft | 431 kts | 100° |
| 2026-04-25 20:58 | 32.69289 | -115.80041 | 32264 ft | 434 kts | 99° |
| 2026-04-25 20:59 | 32.69174 | -115.76467 | 32392 ft | 440 kts | 95° |
| 2026-04-25 20:59 | 32.69345 | -115.72792 | 32524 ft | 448 kts | 91° |
| 2026-04-25 20:59 | 32.69614 | -115.69084 | 32653 ft | 452 kts | 90° |
| 2026-04-25 21:00 | 32.70167 | -115.61793 | 32869 ft | 460 kts | 91° |
| 2026-04-25 21:00 | 32.70351 | -115.59217 | 32879 ft | 464 kts | 90° |
| 2026-04-25 21:01 | 32.71258 | -115.46291 | 32860 ft | 475 kts | 90° |
| 2026-04-25 21:01 | 32.71803 | -115.38508 | 32857 ft | 475 kts | 90° |
| 2026-04-25 21:02 | 32.72351 | -115.30674 | 32888 ft | 475 kts | 90° |
| 2026-04-25 21:02 | 32.72886 | -115.22826 | 32888 ft | 476 kts | 90° |
| 2026-04-25 21:03 | 32.73421 | -115.14981 | 32875 ft | 478 kts | 90° |
| 2026-04-25 21:03 | 32.73954 | -115.07014 | 32879 ft | 494 kts | 90° |
| 2026-04-25 21:04 | 32.74491 | -114.98727 | 32865 ft | 510 kts | 90° |
| 2026-04-25 21:04 | 32.75030 | -114.90176 | 32873 ft | 526 kts | 90° |
| 2026-04-25 21:05 | 32.75570 | -114.81430 | 32874 ft | 541 kts | 90° |
| 2026-04-25 21:05 | 32.76114 | -114.72393 | 32874 ft | 552 kts | 90° |
| 2026-04-25 21:06 | 32.76675 | -114.63265 | 32883 ft | 554 kts | 88° |
| 2026-04-25 21:06 | 32.77528 | -114.54282 | 32867 ft | 536 kts | 87° |
| 2026-04-25 21:07 | 32.78407 | -114.45550 | 32883 ft | 527 kts | 87° |
| 2026-04-25 21:07 | 32.79277 | -114.36955 | 32873 ft | 526 kts | 87° |
| 2026-04-25 21:08 | 32.80140 | -114.28314 | 32883 ft | 526 kts | 87° |
| 2026-04-25 21:08 | 32.81001 | -114.19692 | 32874 ft | 525 kts | 87° |
| 2026-04-25 21:09 | 32.82309 | -114.06792 | 32840 ft | 526 kts | 87° |
| 2026-04-25 21:09 | 32.83180 | -113.98167 | 32843 ft | 526 kts | 87° |
| 2026-04-25 21:10 | 32.84049 | -113.89518 | 32851 ft | 526 kts | 87° |
| 2026-04-25 21:10 | 32.84917 | -113.80917 | 32850 ft | 526 kts | 87° |
| 2026-04-25 21:11 | 32.85791 | -113.72269 | 32837 ft | 526 kts | 86° |
| 2026-04-25 21:11 | 32.86649 | -113.63619 | 32305 ft | 524 kts | 87° |
| 2026-04-25 21:12 | 32.87063 | -113.59412 | 32135 ft | 512 kts | 87° |
| 2026-04-25 21:12 | 32.87475 | -113.55249 | 32004 ft | 499 kts | 87° |
| 2026-04-25 21:12 | 32.87880 | -113.51197 | 31876 ft | 487 kts | 87° |
| 2026-04-25 21:12 | 32.88146 | -113.48556 | 31786 ft | 479 kts | 86° |
| 2026-04-25 21:13 | 32.88695 | -113.43358 | 31499 ft | 468 kts | 80° |
| 2026-04-25 21:13 | 32.89533 | -113.39630 | 31062 ft | 464 kts | 75° |
| 2026-04-25 21:13 | 32.90493 | -113.35920 | 30044 ft | 470 kts | 73° |
| 2026-04-25 21:13 | 32.91463 | -113.32221 | 29248 ft | 466 kts | 74° |
| 2026-04-25 21:14 | 32.92426 | -113.28561 | 28541 ft | 459 kts | 73° |
| 2026-04-25 21:14 | 32.93376 | -113.24963 | 27871 ft | 452 kts | 73° |
| 2026-04-25 21:14 | 32.94470 | -113.21522 | 27209 ft | 446 kts | 68° |
| 2026-04-25 21:14 | 32.95683 | -113.18150 | 26582 ft | 439 kts | 67° |
| 2026-04-25 21:15 | 32.96892 | -113.14839 | 25985 ft | 433 kts | 67° |
| 2026-04-25 21:15 | 32.98088 | -113.11579 | 25394 ft | 427 kts | 66° |
| 2026-04-25 21:15 | 32.99268 | -113.08356 | 24792 ft | 421 kts | 66° |
| 2026-04-25 21:15 | 33.00417 | -113.05166 | 24220 ft | 416 kts | 67° |
| 2026-04-25 21:16 | 33.01542 | -113.02047 | 23673 ft | 411 kts | 67° |
| 2026-04-25 21:16 | 33.02669 | -112.98930 | 23057 ft | 407 kts | 66° |
| 2026-04-25 21:16 | 33.03786 | -112.95846 | 22424 ft | 401 kts | 66° |
| 2026-04-25 21:16 | 33.04889 | -112.92805 | 21795 ft | 396 kts | 66° |
| 2026-04-25 21:17 | 33.05976 | -112.89808 | 21223 ft | 390 kts | 66° |
| 2026-04-25 21:17 | 33.07035 | -112.86890 | 20677 ft | 385 kts | 66° |
| 2026-04-25 21:17 | 33.08089 | -112.83975 | 20149 ft | 380 kts | 66° |
| 2026-04-25 21:17 | 33.09121 | -112.81104 | 19616 ft | 375 kts | 66° |
| 2026-04-25 21:18 | 33.10142 | -112.78258 | 19073 ft | 370 kts | 66° |
| 2026-04-25 21:18 | 33.11149 | -112.75447 | 18564 ft | 366 kts | 66° |
| 2026-04-25 21:18 | 33.12139 | -112.72683 | 18124 ft | 356 kts | 67° |
| 2026-04-25 21:18 | 33.13107 | -112.69988 | 17489 ft | 351 kts | 66° |
| 2026-04-25 21:19 | 33.14070 | -112.67325 | 16878 ft | 345 kts | 66° |
| 2026-04-25 21:19 | 33.15005 | -112.64757 | 16279 ft | 339 kts | 66° |
| 2026-04-25 21:19 | 33.15949 | -112.62180 | 15687 ft | 334 kts | 66° |
| 2026-04-25 21:19 | 33.16882 | -112.59654 | 15105 ft | 329 kts | 66° |
| 2026-04-25 21:20 | 33.17795 | -112.57201 | 14517 ft | 324 kts | 66° |
| 2026-04-25 21:20 | 33.18373 | -112.55567 | 14137 ft | 320 kts | 72° |
| 2026-04-25 21:20 | 33.19148 | -112.52172 | 13357 ft | 313 kts | 78° |
| 2026-04-25 21:20 | 33.19658 | -112.49665 | 12756 ft | 308 kts | 78° |
| 2026-04-25 21:21 | 33.20155 | -112.47226 | 12164 ft | 303 kts | 78° |
| 2026-04-25 21:21 | 33.20650 | -112.44789 | 11557 ft | 300 kts | 78° |
| 2026-04-25 21:21 | 33.21142 | -112.42391 | 10984 ft | 295 kts | 78° |
| 2026-04-25 21:21 | 33.21629 | -112.40017 | 10415 ft | 291 kts | 78° |
| 2026-04-25 21:22 | 33.22104 | -112.37681 | 9871 ft | 288 kts | 78° |
| 2026-04-25 21:22 | 33.22574 | -112.35371 | 9289 ft | 284 kts | 78° |
| 2026-04-25 21:22 | 33.23033 | -112.33090 | 8692 ft | 280 kts | 78° |
| 2026-04-25 21:22 | 33.23476 | -112.30868 | 8139 ft | 276 kts | 78° |
| 2026-04-25 21:23 | 33.23908 | -112.28644 | 7574 ft | 273 kts | 78° |
| 2026-04-25 21:23 | 33.24326 | -112.26445 | 7063 ft | 269 kts | 78° |
| 2026-04-25 21:23 | 33.24741 | -112.24279 | 6533 ft | 266 kts | 78° |
| 2026-04-25 21:23 | 33.25140 | -112.22138 | 5903 ft | 262 kts | 78° |
| 2026-04-25 21:24 | 33.25522 | -112.20046 | 5313 ft | 260 kts | 78° |
| 2026-04-25 21:24 | 33.25897 | -112.17942 | 4737 ft | 257 kts | 78° |
| 2026-04-25 21:24 | 33.26266 | -112.15856 | 4125 ft | 257 kts | 79° |
| 2026-04-25 21:24 | 33.26626 | -112.13794 | 3829 ft | 243 kts | 79° |
| 2026-04-25 21:25 | 33.26953 | -112.11917 | 3845 ft | 221 kts | 79° |
| 2026-04-25 21:25 | 33.27246 | -112.10152 | 3854 ft | 214 kts | 78° |
| 2026-04-25 21:25 | 33.27531 | -112.08412 | 3863 ft | 213 kts | 78° |
| 2026-04-25 21:25 | 33.27814 | -112.06692 | 3864 ft | 205 kts | 78° |
| 2026-04-25 21:26 | 33.28076 | -112.05050 | 3868 ft | 201 kts | 78° |
| 2026-04-25 21:26 | 33.28338 | -112.03402 | 3873 ft | 201 kts | 79° |
| 2026-04-25 21:26 | 33.28600 | -112.01764 | 3881 ft | 201 kts | 78° |
| 2026-04-25 21:26 | 33.28856 | -112.00151 | 3883 ft | 193 kts | 78° |
| 2026-04-25 21:27 | 33.29097 | -111.98619 | 3880 ft | 185 kts | 79° |
| 2026-04-25 21:27 | 33.29330 | -111.97127 | 3885 ft | 180 kts | 78° |
| 2026-04-25 21:27 | 33.29564 | -111.95647 | 3886 ft | 182 kts | 78° |
| 2026-04-25 21:27 | 33.29808 | -111.94162 | 3891 ft | 183 kts | 79° |
| 2026-04-25 21:28 | 33.30048 | -111.92688 | 3877 ft | 183 kts | 77° |
| 2026-04-25 21:28 | 33.30286 | -111.91204 | 3891 ft | 180 kts | 79° |
| 2026-04-25 21:28 | 33.30525 | -111.89742 | 3905 ft | 178 kts | 79° |
| 2026-04-25 21:28 | 33.30889 | -111.88332 | 3882 ft | 177 kts | 52° |
| 2026-04-25 21:29 | 33.31766 | -111.87347 | 3897 ft | 175 kts | 33° |
| 2026-04-25 21:29 | 33.32777 | -111.86540 | 3898 ft | 172 kts | 30° |
| 2026-04-25 21:29 | 33.33804 | -111.85780 | 3894 ft | 174 kts | 27° |
| 2026-04-25 21:29 | 33.34832 | -111.85001 | 3897 ft | 174 kts | 27° |
| 2026-04-25 21:30 | 33.35859 | -111.84247 | 3890 ft | 175 kts | 28° |
| 2026-04-25 21:30 | 33.36926 | -111.83565 | 3873 ft | 171 kts | 23° |
| 2026-04-25 21:30 | 33.37974 | -111.82897 | 3576 ft | 170 kts | 24° |
| 2026-04-25 21:30 | 33.38668 | -111.82468 | 3382 ft | 168 kts | 24° |
| 2026-04-25 21:31 | 33.40045 | -111.81630 | 2970 ft | 168 kts | 21° |
| 2026-04-25 21:31 | 33.41079 | -111.80992 | 2697 ft | 167 kts | 24° |
| 2026-04-25 21:31 | 33.42125 | -111.80369 | 2413 ft | 168 kts | 24° |
| 2026-04-25 21:31 | 33.43129 | -111.79767 | 2460 ft | 148 kts | 19° |
| 2026-04-25 21:32 | 33.44044 | -111.79382 | 2403 ft | 145 kts | 10° |
| 2026-04-25 21:32 | 33.45183 | -111.79479 | 2581 ft | 175 kts | 342° |
| 2026-04-25 21:32 | 33.46135 | -111.80154 | 2781 ft | 143 kts | 307° |
| 2026-04-25 21:32 | 33.46328 | -111.81192 | 2522 ft | 130 kts | 263° |
| 2026-04-25 21:33 | 33.46167 | -111.82345 | 2466 ft | 144 kts | 257° |
| 2026-04-25 21:33 | 33.45850 | -111.83503 | 2346 ft | 151 kts | 246° |
| 2026-04-25 21:33 | 33.45395 | -111.84671 | 2248 ft | 155 kts | 247° |
| 2026-04-25 21:33 | 33.44976 | -111.85861 | 2286 ft | 152 kts | 251° |
| 2026-04-25 21:34 | 33.44673 | -111.87079 | 2259 ft | 156 kts | 257° |
| 2026-04-25 21:34 | 33.44511 | -111.88358 | 2251 ft | 159 kts | 260° |
| 2026-04-25 21:34 | 33.44350 | -111.89671 | 2133 ft | 158 kts | 261° |
| 2026-04-25 21:34 | 33.44203 | -111.90946 | 1952 ft | 149 kts | 264° |
| 2026-04-25 21:35 | 33.44078 | -111.92161 | 1760 ft | 146 kts | 266° |
| 2026-04-25 21:35 | 33.44072 | -111.93356 | 1654 ft | 138 kts | 273° |
| 2026-04-25 21:35 | 33.44089 | -111.94542 | 1598 ft | 149 kts | 272° |
| 2026-04-25 21:35 | 33.44103 | -111.95798 | 1617 ft | 152 kts | 271° |
| 2026-04-25 21:36 | 33.44094 | -111.97035 | 1460 ft | 148 kts | 271° |
| 2026-04-25 21:36 | 33.44070 | -111.98281 | 1368 ft | 147 kts | 271° |
| 2026-04-25 21:36 | 33.44085 | -111.99489 | 1215 ft | 142 kts | 272° |
| 2026-04-25 21:36 | 33.44088 | -112.00620 | 1133 ft | 125 kts | 271° |
| 2026-04-25 21:37 | 33.44086 | -112.01111 | 1132 ft | 29 kts | 271° |
| 2026-04-25 21:37 | 33.44088 | -112.01195 | 1133 ft | 30 kts | 271° |
| 2026-04-25 21:37 | 33.44025 | -112.01370 | 1131 ft | 0 kts | 231° |
| 2026-04-25 21:37 | 33.44022 | -112.01375 | 1135 ft | 4 kts | 230° |
| 2026-04-25 21:38 | 33.43960 | -112.01430 | 1132 ft | 15 kts | 201° |
| 2026-04-25 21:38 | 33.43866 | -112.01421 | 1134 ft | 12 kts | 145° |
| 2026-04-25 21:38 | 33.43847 | -112.01331 | 1131 ft | 12 kts | 91° |
| 2026-04-25 21:38 | 33.43855 | -112.01206 | 1133 ft | 17 kts | 72° |
| 2026-04-25 21:39 | 33.43895 | -112.01086 | 1133 ft | 12 kts | 78° |
| 2026-04-25 21:39 | 33.43853 | -112.01028 | 1133 ft | 10 kts | 163° |
| 2026-04-25 21:39 | 33.43786 | -112.01023 | 1133 ft | 10 kts | 179° |
| 2026-04-25 21:39 | 33.43716 | -112.01021 | 1132 ft | 10 kts | 173° |
| 2026-04-25 21:40 | 33.43694 | -112.00994 | 1132 ft | 4 kts | 109° |
| 2026-04-25 21:40 | 33.43689 | -112.00948 | 1132 ft | 3 kts | 92° |
| 2026-04-25 21:40 | 33.43689 | -112.00946 | 1132 ft | 0 kts | 92° |